createdAt,value
2023-07-12T00:01:51.629Z,5.35
2023-07-12T00:04:20.756Z,6.10
2023-07-12T00:06:49.712Z,6.20
2023-07-12T00:09:18.854Z,6.55
2023-07-12T00:11:47.797Z,5.97
2023-07-12T00:14:16.876Z,4.72
2023-07-12T00:16:46.096Z,5.18
2023-07-12T00:19:16.899Z,5.32
2023-07-12T00:21:46.455Z,5.60
2023-07-12T00:24:15.359Z,5.53
2023-07-12T00:26:44.506Z,5.43
2023-07-12T00:29:13.579Z,5.38
2023-07-12T00:31:42.708Z,5.43
2023-07-12T00:34:11.576Z,6.07
2023-07-12T00:36:40.791Z,5.15
2023-07-12T00:39:11.740Z,4.95
2023-07-12T00:42:02.045Z,5.25
2023-07-12T00:44:37.418Z,4.63
2023-07-12T00:47:06.808Z,5.13
2023-07-12T00:49:36.019Z,4.22
2023-07-12T00:52:16.016Z,5.32
2023-07-12T00:55:01.945Z,4.75
2023-07-12T00:57:33.816Z,4.57
2023-07-12T01:00:14.586Z,5.30
2023-07-12T01:02:48.328Z,5.38
2023-07-12T01:05:17.948Z,5.18
2023-07-12T01:07:47.395Z,4.10
2023-07-12T01:10:16.556Z,5.40
2023-07-12T01:12:45.460Z,4.88
2023-07-12T01:15:14.561Z,4.63
2023-07-12T01:17:43.804Z,5.05
2023-07-12T01:20:13.247Z,4.45
2023-07-12T01:22:45.344Z,3.72
2023-07-12T01:25:14.344Z,5.55
2023-07-12T01:27:43.225Z,5.03
2023-07-12T01:30:12.628Z,5.07
2023-07-12T01:32:43.191Z,5.60
2023-07-12T01:35:12.165Z,4.82
2023-07-12T01:37:41.045Z,5.10
2023-07-12T01:40:12.269Z,5.15
2023-07-12T01:42:42.833Z,4.55
2023-07-12T01:45:12.411Z,4.75
2023-07-12T01:47:41.383Z,4.45
2023-07-12T01:50:10.637Z,4.93
2023-07-12T01:52:39.530Z,5.00
2023-07-12T01:55:08.724Z,4.15
2023-07-12T01:57:37.753Z,4.60
2023-07-12T02:00:07.303Z,4.70
2023-07-12T02:02:36.301Z,4.70
2023-07-12T02:05:06.287Z,5.03
2023-07-12T02:07:35.562Z,4.40
2023-07-12T02:10:20.129Z,4.20
2023-07-12T02:12:49.192Z,4.30
2023-07-12T02:15:18.874Z,5.05
2023-07-12T02:17:48.429Z,4.10
2023-07-12T02:20:17.724Z,4.90
2023-07-12T02:22:48.616Z,5.18
2023-07-12T02:25:19.233Z,4.22
2023-07-12T02:27:48.340Z,4.40
2023-07-12T02:30:23.728Z,4.57
2023-07-12T02:32:53.464Z,4.35
2023-07-12T02:35:25.043Z,4.82
2023-07-12T02:37:54.290Z,4.45
2023-07-12T02:40:25.475Z,3.92
2023-07-12T02:42:54.950Z,4.68
2023-07-12T02:45:24.537Z,5.55
2023-07-12T02:47:54.494Z,4.28
2023-07-12T02:50:23.467Z,4.68
2023-07-12T02:52:52.372Z,4.60
2023-07-12T02:55:21.381Z,4.45
2023-07-12T02:57:50.518Z,5.05
2023-07-12T03:00:20.455Z,4.80
2023-07-12T03:02:49.447Z,4.63
2023-07-12T03:05:18.775Z,4.40
2023-07-12T03:07:47.713Z,4.95
2023-07-12T03:10:16.694Z,4.72
2023-07-12T03:12:45.622Z,5.63
2023-07-12T03:15:14.635Z,5.10
2023-07-12T03:17:43.709Z,5.20
2023-07-12T03:20:13.325Z,4.90
2023-07-12T03:22:42.280Z,5.03
2023-07-12T03:25:11.124Z,5.35
2023-07-12T03:27:40.244Z,4.80
2023-07-12T03:30:09.552Z,5.63
2023-07-12T03:32:38.461Z,5.57
2023-07-12T03:35:07.733Z,4.65
2023-07-12T03:37:36.669Z,4.97
2023-07-12T03:40:07.064Z,4.88
2023-07-12T03:42:36.634Z,5.05
2023-07-12T03:45:05.925Z,5.00
2023-07-12T03:47:34.982Z,5.63
2023-07-12T03:50:04.092Z,5.68
2023-07-12T03:52:33.066Z,4.57
2023-07-12T03:55:02.010Z,5.65
2023-07-12T03:57:30.875Z,5.47
2023-07-12T03:59:59.870Z,5.90
2023-07-12T04:02:30.357Z,5.50
2023-07-12T04:05:00.955Z,6.80
2023-07-12T04:07:29.823Z,6.75
2023-07-12T04:09:58.856Z,5.65
2023-07-12T04:12:28.218Z,7.32
2023-07-12T04:14:57.129Z,5.88
2023-07-12T04:17:26.016Z,6.30
2023-07-12T04:19:55.060Z,6.65
2023-07-12T04:22:23.956Z,5.88
2023-07-12T04:24:54.606Z,6.60
2023-07-12T04:27:23.513Z,6.28
2023-07-12T04:29:52.468Z,5.43
2023-07-12T04:32:21.367Z,6.00
2023-07-12T04:34:50.358Z,6.50
2023-07-12T04:37:19.894Z,7.15
2023-07-12T04:39:49.164Z,7.70
2023-07-12T04:42:18.148Z,7.18
2023-07-12T04:44:47.648Z,6.13
2023-07-12T04:47:20.422Z,6.80
2023-07-12T04:49:49.385Z,7.00
2023-07-12T04:52:18.804Z,6.32
2023-07-12T04:54:48.014Z,7.30
2023-07-12T04:57:17.099Z,6.47
2023-07-12T04:59:46.048Z,7.57
2023-07-12T05:02:14.956Z,6.68
2023-07-12T05:04:43.917Z,7.35
2023-07-12T05:07:12.947Z,6.65
2023-07-12T05:09:42.365Z,7.15
2023-07-12T05:12:12.804Z,7.43
2023-07-12T05:14:41.888Z,7.53
2023-07-12T05:17:11.201Z,8.00
2023-07-12T05:19:40.126Z,8.85
2023-07-12T05:22:09.388Z,7.35
2023-07-12T05:24:38.498Z,6.65
2023-07-12T05:27:07.609Z,8.20
2023-07-12T05:29:36.466Z,8.35
2023-07-12T05:32:06.099Z,8.70
2023-07-12T05:34:34.986Z,10.63
2023-07-12T05:37:03.857Z,8.80
2023-07-12T05:39:33.033Z,9.63
2023-07-12T05:42:01.930Z,9.98
2023-07-12T05:44:31.206Z,11.05
2023-07-12T05:47:00.446Z,10.52
2023-07-12T05:49:29.983Z,11.15
2023-07-12T05:52:01.648Z,11.05
2023-07-12T05:54:32.449Z,10.65
2023-07-12T05:57:01.298Z,10.68
2023-07-12T05:59:31.366Z,11.00
2023-07-12T06:02:00.352Z,11.30
2023-07-12T06:04:29.210Z,11.00
2023-07-12T06:06:58.308Z,12.65
2023-07-12T06:09:27.218Z,11.73
2023-07-12T06:11:56.212Z,12.77
2023-07-12T06:14:25.795Z,11.25
2023-07-12T06:16:55.049Z,11.75
2023-07-12T06:19:24.353Z,11.07
2023-07-12T06:21:54.461Z,12.80
2023-07-12T06:24:23.606Z,11.88
2023-07-12T06:26:52.764Z,13.18
2023-07-12T06:29:21.692Z,13.18
2023-07-12T06:31:50.644Z,13.43
2023-07-12T06:34:19.748Z,14.70
2023-07-12T06:36:48.704Z,15.25
2023-07-12T06:39:18.313Z,14.15
2023-07-12T06:41:48.292Z,15.18
2023-07-12T06:44:17.194Z,14.70
2023-07-12T06:46:46.587Z,16.55
2023-07-12T06:49:17.704Z,14.60
2023-07-12T06:51:49.678Z,14.65
2023-07-12T06:54:19.442Z,15.73
2023-07-12T06:56:50.541Z,15.38
2023-07-12T06:59:19.477Z,13.98
2023-07-12T07:01:49.792Z,12.52
2023-07-12T07:04:19.141Z,12.65
2023-07-12T07:06:48.089Z,14.65
2023-07-12T07:09:17.685Z,11.88
2023-07-12T07:11:47.652Z,8.63
2023-07-12T07:14:16.609Z,7.25
2023-07-12T07:16:46.092Z,6.28
2023-07-12T07:19:15.218Z,7.05
2023-07-12T07:21:44.120Z,7.30
2023-07-12T07:24:18.485Z,7.00
2023-07-12T07:26:47.805Z,4.57
2023-07-12T07:29:16.744Z,3.78
2023-07-12T07:31:46.076Z,2.47
2023-07-12T07:34:16.654Z,2.70
2023-07-12T07:36:45.631Z,5.13
2023-07-12T07:39:14.601Z,4.22
2023-07-12T07:41:44.272Z,2.42
2023-07-12T07:44:13.250Z,2.05
2023-07-12T07:46:42.308Z,2.95
2023-07-12T07:49:11.600Z,2.53
2023-07-12T07:51:40.686Z,2.35
2023-07-12T07:54:10.521Z,2.25
2023-07-12T07:56:39.826Z,1.80
2023-07-12T07:59:09.000Z,1.75
2023-07-12T08:01:43.847Z,1.30
2023-07-12T08:04:13.401Z,1.65
2023-07-12T08:06:42.575Z,1.67
2023-07-12T08:09:11.684Z,1.50
2023-07-12T08:11:40.912Z,1.60
2023-07-12T08:14:10.098Z,1.73
2023-07-12T08:16:39.793Z,1.77
2023-07-12T08:19:17.237Z,1.25
2023-07-12T08:21:48.954Z,1.70
2023-07-12T08:24:19.159Z,2.08
2023-07-12T08:26:58.243Z,1.50
2023-07-12T08:29:35.668Z,1.80
2023-07-12T08:32:07.285Z,1.90
2023-07-12T08:34:36.859Z,1.88
2023-07-12T08:37:06.538Z,1.60
2023-07-12T08:39:35.581Z,1.95
2023-07-12T08:42:19.082Z,1.83
2023-07-12T08:47:26.762Z,1.25
2023-07-12T08:49:55.703Z,1.70
2023-07-12T08:52:34.786Z,1.63
2023-07-12T08:55:04.472Z,1.58
2023-07-12T08:57:33.415Z,1.10
2023-07-12T09:00:36.400Z,0.90
2023-07-12T09:03:05.384Z,1.27
2023-07-12T09:05:34.975Z,1.13
2023-07-12T09:08:21.032Z,1.23
2023-07-12T09:10:57.016Z,1.40
2023-07-12T09:13:41.027Z,1.13
2023-07-12T09:16:33.512Z,1.00
2023-07-12T09:19:15.700Z,0.80
2023-07-12T09:22:15.488Z,0.90
2023-07-12T09:24:47.989Z,0.90
2023-07-12T09:27:20.325Z,1.10
2023-07-12T09:29:50.625Z,1.00
2023-07-12T09:32:29.968Z,0.80
2023-07-12T09:34:59.967Z,0.80
2023-07-12T09:37:29.194Z,0.93
2023-07-12T09:40:03.263Z,0.80
2023-07-12T09:42:33.692Z,1.13
2023-07-12T09:45:07.246Z,1.08
2023-07-12T09:47:42.659Z,0.73
2023-07-12T09:50:25.155Z,1.42
2023-07-12T09:53:17.725Z,1.50
2023-07-12T09:56:06.382Z,1.30
2023-07-12T09:59:08.448Z,1.73
2023-07-12T10:01:51.723Z,0.90
2023-07-12T10:06:59.287Z,1.40
2023-07-12T10:09:36.725Z,1.58
2023-07-12T10:12:28.699Z,1.88
2023-07-12T10:14:58.088Z,1.50
2023-07-12T10:17:41.036Z,3.22
2023-07-12T10:20:21.286Z,1.90
2023-07-12T10:22:52.030Z,1.80
2023-07-12T10:25:33.123Z,1.90
2023-07-12T10:28:28.533Z,1.83
2023-07-12T10:31:03.012Z,1.60
2023-07-12T10:33:44.931Z,1.88
2023-07-12T10:36:23.257Z,1.95
2023-07-12T10:38:52.757Z,1.83
2023-07-12T10:41:31.900Z,2.50
2023-07-12T10:44:12.523Z,2.03
2023-07-12T10:46:46.252Z,2.00
2023-07-12T10:49:22.044Z,2.35
2023-07-12T10:52:28.594Z,2.60
2023-07-12T10:55:20.538Z,2.70
2023-07-12T10:57:52.753Z,1.92
2023-07-12T11:00:24.452Z,2.70
2023-07-12T11:03:17.370Z,2.10
2023-07-12T11:05:49.419Z,2.65
2023-07-12T11:08:33.312Z,2.00
2023-07-12T11:11:26.119Z,1.92
2023-07-12T11:14:18.793Z,1.90
2023-07-12T11:16:52.338Z,1.67
2023-07-12T11:20:05.712Z,2.03
2023-07-12T11:22:58.863Z,2.15
2023-07-12T11:25:38.674Z,1.77
2023-07-12T11:28:23.337Z,1.70
2023-07-12T11:31:26.063Z,1.60
2023-07-12T11:34:14.463Z,2.38
2023-07-12T11:36:45.142Z,2.35
2023-07-12T11:39:20.641Z,2.08
2023-07-12T11:42:10.497Z,2.38
2023-07-12T11:44:39.512Z,2.25
2023-07-12T11:47:11.519Z,1.80
2023-07-12T11:49:42.345Z,1.70
2023-07-12T11:54:45.163Z,2.03
2023-07-12T11:57:15.141Z,1.67
2023-07-12T11:59:48.838Z,1.88
2023-07-12T12:02:20.836Z,2.25
2023-07-12T12:04:51.980Z,2.03
2023-07-12T12:07:28.481Z,2.30
2023-07-12T12:12:37.013Z,2.35
2023-07-12T12:15:23.821Z,2.65
2023-07-12T12:17:54.580Z,1.98
2023-07-12T12:20:28.444Z,1.50
2023-07-12T12:23:06.639Z,1.63
2023-07-12T12:25:46.042Z,1.77
2023-07-12T12:28:38.046Z,1.88
2023-07-12T12:31:18.833Z,2.60
2023-07-12T12:34:12.649Z,1.95
2023-07-12T12:36:56.974Z,2.13
2023-07-12T12:39:26.088Z,2.03
2023-07-12T12:42:02.897Z,1.42
2023-07-12T12:44:33.788Z,1.50
2023-07-12T12:47:22.288Z,1.63
2023-07-12T12:55:08.069Z,1.67
2023-07-12T13:05:34.704Z,2.58
2023-07-12T13:11:13.728Z,2.58
2023-07-12T13:21:23.382Z,5.80
2023-07-12T13:23:53.897Z,6.57
2023-07-12T13:26:25.241Z,5.50
2023-07-12T13:28:54.291Z,6.25
2023-07-12T13:31:24.109Z,5.40
2023-07-12T13:33:56.282Z,6.55
2023-07-12T13:36:34.557Z,6.40
2023-07-12T13:46:55.074Z,6.53
2023-07-12T13:49:24.089Z,7.80
2023-07-12T13:51:52.981Z,7.47
2023-07-12T13:54:23.194Z,7.43
2023-07-12T13:56:52.469Z,7.55
2023-07-12T14:00:23.636Z,7.88
2023-07-12T14:03:07.279Z,7.18
2023-07-12T14:10:44.964Z,23.90
2023-07-12T14:13:24.122Z,21.75
2023-07-12T14:15:52.992Z,29.55
2023-07-12T14:18:21.886Z,30.88
2023-07-12T14:20:51.541Z,30.80
2023-07-12T14:23:24.983Z,30.80
2023-07-12T14:25:54.124Z,31.98
2023-07-12T14:28:23.119Z,28.92
2023-07-12T14:33:33.037Z,30.80
2023-07-12T14:36:02.041Z,32.58
2023-07-12T14:38:31.094Z,31.67
2023-07-12T14:41:02.492Z,33.03
2023-07-12T14:43:34.538Z,31.17
2023-07-12T14:46:03.724Z,29.05
2023-07-12T14:48:34.152Z,29.80
2023-07-12T14:51:03.498Z,26.52
2023-07-12T14:53:32.962Z,26.73
2023-07-12T14:56:02.091Z,26.63
2023-07-12T14:58:31.594Z,25.55
2023-07-12T15:01:00.569Z,22.55
2023-07-12T15:03:31.210Z,22.13
2023-07-12T15:06:01.140Z,21.25
2023-07-12T15:08:34.308Z,21.88
2023-07-12T15:11:05.851Z,20.60
2023-07-12T15:13:35.240Z,21.30
2023-07-12T15:16:04.180Z,20.23
2023-07-12T15:18:33.515Z,21.15
2023-07-12T15:21:10.887Z,20.25
2023-07-12T15:23:40.810Z,20.52
2023-07-12T15:26:11.589Z,24.67
2023-07-12T15:28:41.673Z,24.80
2023-07-12T15:31:34.398Z,21.75
2023-07-12T15:34:04.054Z,22.02
2023-07-12T15:36:34.865Z,23.13
2023-07-12T15:39:04.206Z,21.23
2023-07-12T15:41:33.264Z,25.45
2023-07-12T15:44:02.949Z,22.75
2023-07-12T15:46:34.036Z,23.70
2023-07-12T15:49:07.437Z,21.63
2023-07-12T15:51:49.549Z,23.08
2023-07-12T15:54:29.230Z,22.05
2023-07-12T15:56:58.371Z,22.83
2023-07-12T15:59:30.515Z,22.30
2023-07-12T16:02:00.134Z,25.83
2023-07-12T16:04:29.136Z,30.73
2023-07-12T16:06:58.421Z,35.80
2023-07-12T16:09:28.390Z,41.15
2023-07-12T16:11:57.748Z,43.22
2023-07-12T16:14:28.447Z,46.50
2023-07-12T16:17:06.417Z,50.97
2023-07-12T16:19:36.504Z,49.20
2023-07-12T16:22:07.157Z,43.15
2023-07-12T16:27:10.103Z,38.88
2023-07-12T16:29:39.568Z,47.67
2023-07-12T16:32:17.067Z,50.15
2023-07-12T16:34:46.315Z,45.47
2023-07-12T16:37:18.635Z,48.47
2023-07-12T16:39:48.462Z,43.35
2023-07-12T16:42:36.767Z,43.83
2023-07-12T16:45:14.843Z,42.72
2023-07-12T16:47:44.087Z,41.38
2023-07-12T16:50:12.928Z,41.30
2023-07-12T16:52:41.796Z,38.50
2023-07-12T16:55:22.184Z,34.53
2023-07-12T16:57:51.353Z,33.42
2023-07-12T17:00:20.499Z,29.38
2023-07-12T17:02:49.660Z,30.48
2023-07-12T17:05:20.704Z,30.60
2023-07-12T17:07:49.656Z,31.70
2023-07-12T17:10:18.772Z,42.10
2023-07-12T17:12:48.124Z,42.13
2023-07-12T17:15:17.026Z,39.88
2023-07-12T17:17:48.746Z,33.30
2023-07-12T17:20:17.735Z,35.45
2023-07-12T17:22:46.635Z,38.55
2023-07-12T17:25:15.668Z,34.35
2023-07-12T17:27:44.934Z,35.35
2023-07-12T17:30:15.027Z,38.13
2023-07-12T17:32:44.569Z,41.88
2023-07-12T17:35:13.880Z,39.25
2023-07-12T17:37:42.805Z,37.85
2023-07-12T17:40:15.601Z,35.42
2023-07-12T17:42:45.114Z,36.40
2023-07-12T17:45:20.490Z,35.97
2023-07-12T17:47:49.448Z,35.38
2023-07-12T17:50:18.717Z,41.13
2023-07-12T17:52:48.370Z,38.03
2023-07-12T17:55:18.641Z,40.95
2023-07-12T17:57:47.512Z,35.78
2023-07-12T18:00:19.131Z,35.42
2023-07-12T18:02:48.077Z,36.38
2023-07-12T18:05:25.821Z,37.03
2023-07-12T18:07:55.656Z,36.05
2023-07-12T18:10:24.792Z,36.38
2023-07-12T18:12:54.199Z,33.40
2023-07-12T18:15:26.368Z,33.97
2023-07-12T18:17:56.007Z,33.50
2023-07-12T18:20:26.444Z,34.15
2023-07-12T18:22:55.452Z,39.92
2023-07-12T18:25:24.591Z,35.85
2023-07-12T18:27:53.514Z,34.15
2023-07-12T18:30:22.438Z,35.50
2023-07-12T18:32:51.547Z,34.47
2023-07-12T18:35:28.931Z,34.40
2023-07-12T18:37:57.919Z,37.15
2023-07-12T18:40:28.399Z,33.88
2023-07-12T18:42:57.470Z,35.67
2023-07-12T18:45:33.346Z,36.85
2023-07-12T18:48:03.031Z,41.83
2023-07-12T18:50:32.492Z,37.67
2023-07-12T18:53:01.457Z,39.10
2023-07-12T18:55:30.801Z,36.63
2023-07-12T18:58:01.473Z,38.55
2023-07-12T19:00:30.517Z,38.03
2023-07-12T19:02:59.596Z,40.60
2023-07-12T19:05:31.325Z,37.53
2023-07-12T19:08:00.287Z,37.47
2023-07-12T19:10:31.198Z,40.78
2023-07-12T19:13:00.518Z,37.60
2023-07-12T19:15:31.693Z,35.45
2023-07-12T19:18:00.659Z,36.17
2023-07-12T19:20:29.945Z,34.92
2023-07-12T19:22:58.881Z,34.72
2023-07-12T19:25:29.313Z,33.67
2023-07-12T19:27:58.450Z,35.03
2023-07-12T19:30:30.387Z,36.30
2023-07-12T19:33:00.341Z,33.67
2023-07-12T19:35:34.496Z,32.42
2023-07-12T19:38:04.473Z,33.10
2023-07-12T19:40:33.609Z,32.22
2023-07-12T19:43:02.502Z,38.85
2023-07-12T19:45:31.736Z,38.20
2023-07-12T19:48:00.800Z,38.45
2023-07-12T19:50:33.567Z,34.35
2023-07-12T19:53:03.564Z,34.25
2023-07-12T19:55:32.587Z,33.45
2023-07-12T19:58:01.851Z,33.60
2023-07-12T20:00:31.381Z,31.42
2023-07-12T20:03:10.694Z,30.52
2023-07-12T20:05:42.189Z,32.40
2023-07-12T20:08:11.241Z,32.85
2023-07-12T20:10:40.069Z,31.00
2023-07-12T20:13:11.314Z,31.35
2023-07-12T20:15:40.768Z,31.17
2023-07-12T20:18:11.013Z,29.23
2023-07-12T20:20:42.724Z,28.80
2023-07-12T20:23:12.041Z,28.27
2023-07-12T20:25:41.401Z,29.15
2023-07-12T20:28:10.292Z,27.65
2023-07-12T20:30:40.456Z,28.25
2023-07-12T20:33:10.614Z,25.73
2023-07-12T20:35:39.539Z,26.85
2023-07-12T20:38:09.768Z,29.15
2023-07-12T20:40:39.063Z,26.80
2023-07-12T20:43:08.498Z,29.83
2023-07-12T20:45:37.947Z,36.53
2023-07-12T20:48:08.568Z,34.67
2023-07-12T20:50:40.247Z,31.52
2023-07-12T20:53:10.554Z,31.35
2023-07-12T20:55:39.467Z,30.05
2023-07-12T20:58:08.619Z,30.17
2023-07-12T21:03:23.119Z,28.05
2023-07-12T21:06:01.353Z,26.77
2023-07-12T21:08:31.317Z,29.25
2023-07-12T21:11:01.924Z,26.58
2023-07-12T21:13:31.765Z,26.90
2023-07-12T21:16:04.250Z,31.88
2023-07-12T21:18:34.260Z,30.15
2023-07-12T21:21:04.466Z,30.92
2023-07-12T21:23:33.685Z,30.83
2023-07-12T21:26:03.388Z,30.83
2023-07-12T21:28:32.670Z,28.02
2023-07-12T21:31:01.747Z,28.75
2023-07-12T21:33:30.805Z,28.90
2023-07-12T21:36:00.639Z,29.00
2023-07-12T21:38:30.192Z,28.38
2023-07-12T21:41:05.884Z,28.88
2023-07-12T21:43:34.746Z,29.30
2023-07-12T21:46:04.895Z,28.13
2023-07-12T21:48:36.194Z,26.60
2023-07-12T21:51:05.876Z,26.13
2023-07-12T21:53:34.933Z,27.40
2023-07-12T21:56:04.091Z,28.17
2023-07-12T21:58:33.815Z,25.67
2023-07-12T22:01:08.514Z,26.33
2023-07-12T22:03:38.715Z,26.08
2023-07-12T22:06:09.520Z,25.60
2023-07-12T22:08:42.300Z,25.40
2023-07-12T22:11:15.312Z,25.63
2023-07-12T22:13:47.520Z,26.00
2023-07-12T22:16:17.034Z,25.65
2023-07-12T22:18:49.167Z,25.00
2023-07-12T22:21:20.798Z,25.55
2023-07-12T22:24:34.102Z,25.83
2023-07-12T22:26:15.360Z,26.50
2023-07-12T22:29:25.276Z,25.17
2023-07-12T22:31:00.238Z,26.13
2023-07-12T22:32:35.154Z,25.13
2023-07-12T22:34:10.316Z,26.67
2023-07-12T22:35:45.471Z,25.05
2023-07-12T22:37:20.320Z,26.23
2023-07-12T22:40:31.171Z,22.55
2023-07-12T22:42:06.751Z,23.52
2023-07-12T22:43:41.629Z,24.05
2023-07-12T22:46:54.160Z,23.30
2023-07-12T22:48:28.998Z,24.17
2023-07-12T22:50:04.043Z,24.83
2023-07-12T22:51:38.899Z,26.27
2023-07-12T22:54:51.178Z,23.15
2023-07-12T22:56:28.786Z,23.10
2023-07-12T22:58:04.583Z,23.00
2023-07-12T22:59:39.504Z,22.50
2023-07-12T23:02:49.865Z,21.63
2023-07-12T23:04:24.938Z,22.63
2023-07-12T23:07:34.567Z,22.10
2023-07-12T23:10:44.611Z,22.90
2023-07-12T23:13:53.958Z,20.83
2023-07-12T23:17:03.196Z,20.77
2023-07-12T23:20:18.618Z,21.73
2023-07-12T23:21:53.467Z,21.95
2023-07-12T23:23:28.314Z,23.00
2023-07-12T23:26:38.508Z,23.10
2023-07-12T23:29:50.105Z,21.08
2023-07-12T23:32:59.506Z,19.73
2023-07-12T23:36:16.149Z,20.77
2023-07-12T23:37:51.324Z,22.20
2023-07-12T23:39:26.169Z,23.20
2023-07-12T23:42:36.781Z,22.40
2023-07-12T23:44:11.798Z,21.75
2023-07-12T23:45:48.013Z,21.88
2023-07-12T23:47:22.909Z,20.70
2023-07-12T23:50:35.922Z,20.17
2023-07-12T23:52:14.261Z,20.52
2023-07-12T23:53:49.102Z,20.38
2023-07-12T23:57:00.846Z,19.52
2023-07-12T23:58:35.738Z,20.65
